sensor_id;sensor_type;location;lat;lon;timestamp;P1;durP1;ratioP1;P2;durP2;ratioP2
73650;SDS011;61944;52.538;6.108;2023-05-07T00:00:09;14.23;;;9.38;;
73650;SDS011;61944;52.538;6.108;2023-05-07T00:02:34;14.30;;;9.93;;
73650;SDS011;61944;52.538;6.108;2023-05-07T00:05:01;12.38;;;8.85;;
73650;SDS011;61944;52.538;6.108;2023-05-07T00:07:27;12.25;;;8.05;;
73650;SDS011;61944;52.538;6.108;2023-05-07T00:09:53;13.23;;;9.98;;
73650;SDS011;61944;52.538;6.108;2023-05-07T00:12:18;11.55;;;8.35;;
73650;SDS011;61944;52.538;6.108;2023-05-07T00:14:44;11.95;;;9.15;;
73650;SDS011;61944;52.538;6.108;2023-05-07T00:17:10;13.75;;;10.60;;
73650;SDS011;61944;52.538;6.108;2023-05-07T00:19:36;11.43;;;9.45;;
73650;SDS011;61944;52.538;6.108;2023-05-07T00:22:01;11.27;;;9.15;;
73650;SDS011;61944;52.538;6.108;2023-05-07T00:24:27;11.73;;;8.90;;
73650;SDS011;61944;52.538;6.108;2023-05-07T00:26:52;13.32;;;8.90;;
73650;SDS011;61944;52.538;6.108;2023-05-07T00:29:17;15.77;;;10.77;;
73650;SDS011;61944;52.538;6.108;2023-05-07T00:31:43;13.50;;;9.70;;
73650;SDS011;61944;52.538;6.108;2023-05-07T00:34:08;10.20;;;8.32;;
73650;SDS011;61944;52.538;6.108;2023-05-07T00:36:34;11.65;;;8.93;;
73650;SDS011;61944;52.538;6.108;2023-05-07T00:38:59;12.63;;;9.18;;
73650;SDS011;61944;52.538;6.108;2023-05-07T00:41:27;13.32;;;9.10;;
73650;SDS011;61944;52.538;6.108;2023-05-07T00:43:52;12.52;;;8.95;;
73650;SDS011;61944;52.538;6.108;2023-05-07T00:46:19;13.73;;;9.93;;
73650;SDS011;61944;52.538;6.108;2023-05-07T00:48:45;17.13;;;12.18;;
73650;SDS011;61944;52.538;6.108;2023-05-07T00:51:11;11.73;;;8.93;;
73650;SDS011;61944;52.538;6.108;2023-05-07T00:53:37;13.40;;;9.93;;
73650;SDS011;61944;52.538;6.108;2023-05-07T00:56:03;12.82;;;9.77;;
73650;SDS011;61944;52.538;6.108;2023-05-07T00:58:31;13.73;;;9.90;;
73650;SDS011;61944;52.538;6.108;2023-05-07T01:00:57;15.50;;;10.50;;
73650;SDS011;61944;52.538;6.108;2023-05-07T01:03:23;15.30;;;10.93;;
73650;SDS011;61944;52.538;6.108;2023-05-07T01:05:48;14.75;;;10.65;;
73650;SDS011;61944;52.538;6.108;2023-05-07T01:08:19;17.30;;;11.15;;
73650;SDS011;61944;52.538;6.108;2023-05-07T01:10:52;15.75;;;9.85;;
73650;SDS011;61944;52.538;6.108;2023-05-07T01:13:34;17.50;;;9.95;;
73650;SDS011;61944;52.538;6.108;2023-05-07T01:16:02;18.08;;;10.30;;
73650;SDS011;61944;52.538;6.108;2023-05-07T01:18:28;15.38;;;10.15;;
73650;SDS011;61944;52.538;6.108;2023-05-07T01:20:55;16.40;;;10.38;;
73650;SDS011;61944;52.538;6.108;2023-05-07T01:23:23;19.10;;;11.75;;
73650;SDS011;61944;52.538;6.108;2023-05-07T01:25:51;15.90;;;11.32;;
73650;SDS011;61944;52.538;6.108;2023-05-07T01:28:19;19.17;;;12.75;;
73650;SDS011;61944;52.538;6.108;2023-05-07T01:30:45;15.35;;;10.68;;
73650;SDS011;61944;52.538;6.108;2023-05-07T01:33:15;17.75;;;12.98;;
73650;SDS011;61944;52.538;6.108;2023-05-07T01:35:47;16.05;;;12.38;;
73650;SDS011;61944;52.538;6.108;2023-05-07T01:38:15;19.10;;;13.02;;
73650;SDS011;61944;52.538;6.108;2023-05-07T01:40:41;23.67;;;15.63;;
73650;SDS011;61944;52.538;6.108;2023-05-07T01:43:07;18.48;;;12.65;;
73650;SDS011;61944;52.538;6.108;2023-05-07T01:45:34;22.52;;;15.18;;
73650;SDS011;61944;52.538;6.108;2023-05-07T01:48:00;21.85;;;14.48;;
73650;SDS011;61944;52.538;6.108;2023-05-07T01:50:26;21.63;;;15.82;;
73650;SDS011;61944;52.538;6.108;2023-05-07T01:52:52;20.27;;;13.95;;
73650;SDS011;61944;52.538;6.108;2023-05-07T01:55:18;21.33;;;15.63;;
73650;SDS011;61944;52.538;6.108;2023-05-07T01:57:43;20.58;;;13.98;;
73650;SDS011;61944;52.538;6.108;2023-05-07T02:00:09;17.73;;;12.85;;
73650;SDS011;61944;52.538;6.108;2023-05-07T02:02:34;20.70;;;16.02;;
73650;SDS011;61944;52.538;6.108;2023-05-07T02:05:00;23.40;;;14.48;;
73650;SDS011;61944;52.538;6.108;2023-05-07T02:07:26;19.25;;;13.90;;
73650;SDS011;61944;52.538;6.108;2023-05-07T02:09:52;21.40;;;16.00;;
73650;SDS011;61944;52.538;6.108;2023-05-07T02:12:18;27.10;;;19.02;;
73650;SDS011;61944;52.538;6.108;2023-05-07T02:14:44;25.00;;;16.65;;
73650;SDS011;61944;52.538;6.108;2023-05-07T02:17:09;28.77;;;18.00;;
73650;SDS011;61944;52.538;6.108;2023-05-07T02:19:34;30.02;;;19.00;;
73650;SDS011;61944;52.538;6.108;2023-05-07T02:22:00;28.20;;;19.65;;
73650;SDS011;61944;52.538;6.108;2023-05-07T02:24:25;29.73;;;18.45;;
73650;SDS011;61944;52.538;6.108;2023-05-07T02:26:51;25.08;;;17.77;;
73650;SDS011;61944;52.538;6.108;2023-05-07T02:29:16;25.83;;;18.48;;
73650;SDS011;61944;52.538;6.108;2023-05-07T02:31:41;24.58;;;18.02;;
73650;SDS011;61944;52.538;6.108;2023-05-07T02:34:07;28.25;;;19.20;;
73650;SDS011;61944;52.538;6.108;2023-05-07T02:36:32;26.10;;;17.02;;
73650;SDS011;61944;52.538;6.108;2023-05-07T02:38:57;27.60;;;19.45;;
73650;SDS011;61944;52.538;6.108;2023-05-07T02:41:23;21.55;;;14.70;;
73650;SDS011;61944;52.538;6.108;2023-05-07T02:43:48;23.38;;;16.52;;
73650;SDS011;61944;52.538;6.108;2023-05-07T02:46:14;24.70;;;17.85;;
73650;SDS011;61944;52.538;6.108;2023-05-07T02:48:40;23.33;;;16.55;;
73650;SDS011;61944;52.538;6.108;2023-05-07T02:51:06;23.98;;;16.13;;
73650;SDS011;61944;52.538;6.108;2023-05-07T02:53:31;23.65;;;16.75;;
73650;SDS011;61944;52.538;6.108;2023-05-07T02:55:57;26.05;;;16.60;;
73650;SDS011;61944;52.538;6.108;2023-05-07T02:58:24;20.30;;;14.32;;
73650;SDS011;61944;52.538;6.108;2023-05-07T03:00:50;22.60;;;13.93;;
73650;SDS011;61944;52.538;6.108;2023-05-07T03:03:15;24.13;;;15.98;;
73650;SDS011;61944;52.538;6.108;2023-05-07T03:05:41;23.65;;;14.30;;
73650;SDS011;61944;52.538;6.108;2023-05-07T03:08:06;23.42;;;13.57;;
73650;SDS011;61944;52.538;6.108;2023-05-07T03:10:32;22.83;;;14.35;;
73650;SDS011;61944;52.538;6.108;2023-05-07T03:12:58;21.98;;;14.35;;
73650;SDS011;61944;52.538;6.108;2023-05-07T03:15:23;18.83;;;13.10;;
73650;SDS011;61944;52.538;6.108;2023-05-07T03:17:48;26.13;;;16.40;;
73650;SDS011;61944;52.538;6.108;2023-05-07T03:20:14;18.20;;;12.35;;
73650;SDS011;61944;52.538;6.108;2023-05-07T03:22:39;28.23;;;14.73;;
73650;SDS011;61944;52.538;6.108;2023-05-07T03:25:05;29.58;;;15.13;;
73650;SDS011;61944;52.538;6.108;2023-05-07T03:27:31;23.45;;;16.33;;
73650;SDS011;61944;52.538;6.108;2023-05-07T03:29:57;18.60;;;12.95;;
73650;SDS011;61944;52.538;6.108;2023-05-07T03:32:22;33.10;;;17.13;;
73650;SDS011;61944;52.538;6.108;2023-05-07T03:34:48;27.85;;;16.15;;
73650;SDS011;61944;52.538;6.108;2023-05-07T03:37:13;20.45;;;13.73;;
73650;SDS011;61944;52.538;6.108;2023-05-07T03:39:38;20.85;;;14.35;;
73650;SDS011;61944;52.538;6.108;2023-05-07T03:42:04;27.75;;;15.52;;
73650;SDS011;61944;52.538;6.108;2023-05-07T03:44:29;22.55;;;14.38;;
73650;SDS011;61944;52.538;6.108;2023-05-07T03:46:54;18.13;;;13.05;;
73650;SDS011;61944;52.538;6.108;2023-05-07T03:49:20;23.02;;;14.75;;
73650;SDS011;61944;52.538;6.108;2023-05-07T03:51:46;23.50;;;15.15;;
73650;SDS011;61944;52.538;6.108;2023-05-07T03:54:11;31.80;;;15.85;;
73650;SDS011;61944;52.538;6.108;2023-05-07T03:56:36;27.60;;;16.00;;
73650;SDS011;61944;52.538;6.108;2023-05-07T03:59:02;25.33;;;15.35;;
73650;SDS011;61944;52.538;6.108;2023-05-07T04:01:27;24.52;;;16.17;;
73650;SDS011;61944;52.538;6.108;2023-05-07T04:03:53;23.80;;;13.73;;
73650;SDS011;61944;52.538;6.108;2023-05-07T04:06:18;29.85;;;17.40;;
73650;SDS011;61944;52.538;6.108;2023-05-07T04:08:43;27.10;;;16.73;;
73650;SDS011;61944;52.538;6.108;2023-05-07T04:11:09;24.48;;;14.70;;
73650;SDS011;61944;52.538;6.108;2023-05-07T04:13:34;26.73;;;16.13;;
73650;SDS011;61944;52.538;6.108;2023-05-07T04:16:01;30.40;;;17.85;;
73650;SDS011;61944;52.538;6.108;2023-05-07T04:18:27;27.63;;;16.27;;
73650;SDS011;61944;52.538;6.108;2023-05-07T04:20:53;28.27;;;17.15;;
73650;SDS011;61944;52.538;6.108;2023-05-07T04:23:18;30.98;;;16.48;;
73650;SDS011;61944;52.538;6.108;2023-05-07T04:25:44;28.15;;;16.92;;
73650;SDS011;61944;52.538;6.108;2023-05-07T04:28:10;26.25;;;15.98;;
73650;SDS011;61944;52.538;6.108;2023-05-07T04:30:36;34.38;;;19.98;;
73650;SDS011;61944;52.538;6.108;2023-05-07T04:33:01;28.42;;;15.98;;
73650;SDS011;61944;52.538;6.108;2023-05-07T04:35:27;30.98;;;16.35;;
73650;SDS011;61944;52.538;6.108;2023-05-07T04:37:52;29.23;;;17.77;;
73650;SDS011;61944;52.538;6.108;2023-05-07T04:40:17;28.45;;;17.27;;
73650;SDS011;61944;52.538;6.108;2023-05-07T04:42:43;28.42;;;17.60;;
73650;SDS011;61944;52.538;6.108;2023-05-07T04:45:08;28.95;;;19.23;;
73650;SDS011;61944;52.538;6.108;2023-05-07T04:47:35;34.70;;;18.88;;
73650;SDS011;61944;52.538;6.108;2023-05-07T04:50:00;32.92;;;19.63;;
73650;SDS011;61944;52.538;6.108;2023-05-07T04:52:26;34.08;;;18.58;;
73650;SDS011;61944;52.538;6.108;2023-05-07T04:54:51;29.30;;;17.70;;
73650;SDS011;61944;52.538;6.108;2023-05-07T04:57:17;29.38;;;17.67;;
73650;SDS011;61944;52.538;6.108;2023-05-07T04:59:42;31.13;;;18.25;;
73650;SDS011;61944;52.538;6.108;2023-05-07T05:02:09;32.53;;;18.35;;
73650;SDS011;61944;52.538;6.108;2023-05-07T05:04:35;34.83;;;18.40;;
73650;SDS011;61944;52.538;6.108;2023-05-07T05:07:01;32.80;;;18.67;;
73650;SDS011;61944;52.538;6.108;2023-05-07T05:09:29;32.65;;;18.63;;
73650;SDS011;61944;52.538;6.108;2023-05-07T05:11:54;35.90;;;20.63;;
73650;SDS011;61944;52.538;6.108;2023-05-07T05:14:20;32.17;;;18.58;;
73650;SDS011;61944;52.538;6.108;2023-05-07T05:16:45;37.88;;;18.23;;
73650;SDS011;61944;52.538;6.108;2023-05-07T05:19:10;28.85;;;18.27;;
73650;SDS011;61944;52.538;6.108;2023-05-07T05:21:36;33.00;;;18.02;;
73650;SDS011;61944;52.538;6.108;2023-05-07T05:24:01;31.85;;;19.02;;
73650;SDS011;61944;52.538;6.108;2023-05-07T05:26:27;37.85;;;19.30;;
73650;SDS011;61944;52.538;6.108;2023-05-07T05:28:52;31.27;;;18.67;;
73650;SDS011;61944;52.538;6.108;2023-05-07T05:31:17;38.60;;;20.00;;
73650;SDS011;61944;52.538;6.108;2023-05-07T05:33:43;40.33;;;18.25;;
73650;SDS011;61944;52.538;6.108;2023-05-07T05:36:11;33.50;;;18.75;;
73650;SDS011;61944;52.538;6.108;2023-05-07T05:38:38;39.67;;;20.52;;
73650;SDS011;61944;52.538;6.108;2023-05-07T05:41:04;41.47;;;22.65;;
73650;SDS011;61944;52.538;6.108;2023-05-07T05:43:29;37.15;;;20.33;;
73650;SDS011;61944;52.538;6.108;2023-05-07T05:45:55;37.08;;;20.35;;
73650;SDS011;61944;52.538;6.108;2023-05-07T05:48:21;35.35;;;20.73;;
73650;SDS011;61944;52.538;6.108;2023-05-07T05:50:46;40.08;;;21.08;;
73650;SDS011;61944;52.538;6.108;2023-05-07T05:53:12;36.70;;;19.85;;
73650;SDS011;61944;52.538;6.108;2023-05-07T05:55:37;39.05;;;22.08;;
73650;SDS011;61944;52.538;6.108;2023-05-07T05:58:02;41.75;;;22.80;;
73650;SDS011;61944;52.538;6.108;2023-05-07T06:00:28;33.97;;;19.70;;
73650;SDS011;61944;52.538;6.108;2023-05-07T06:02:54;38.03;;;19.55;;
73650;SDS011;61944;52.538;6.108;2023-05-07T06:05:19;36.00;;;19.77;;
73650;SDS011;61944;52.538;6.108;2023-05-07T06:07:45;40.70;;;20.10;;
73650;SDS011;61944;52.538;6.108;2023-05-07T06:10:10;41.97;;;22.58;;
73650;SDS011;61944;52.538;6.108;2023-05-07T06:12:35;43.60;;;21.98;;
73650;SDS011;61944;52.538;6.108;2023-05-07T06:15:01;40.50;;;21.23;;
73650;SDS011;61944;52.538;6.108;2023-05-07T06:17:26;40.40;;;24.05;;
73650;SDS011;61944;52.538;6.108;2023-05-07T06:19:52;40.63;;;21.90;;
73650;SDS011;61944;52.538;6.108;2023-05-07T06:22:17;41.40;;;21.08;;
73650;SDS011;61944;52.538;6.108;2023-05-07T06:24:43;39.30;;;20.63;;
73650;SDS011;61944;52.538;6.108;2023-05-07T06:27:08;40.88;;;23.40;;
73650;SDS011;61944;52.538;6.108;2023-05-07T06:29:34;39.55;;;22.13;;
73650;SDS011;61944;52.538;6.108;2023-05-07T06:32:09;45.88;;;22.77;;
73650;SDS011;61944;52.538;6.108;2023-05-07T06:34:35;43.20;;;22.27;;
73650;SDS011;61944;52.538;6.108;2023-05-07T06:37:01;47.35;;;23.83;;
73650;SDS011;61944;52.538;6.108;2023-05-07T06:39:26;39.60;;;22.23;;
73650;SDS011;61944;52.538;6.108;2023-05-07T06:41:52;41.20;;;22.17;;
73650;SDS011;61944;52.538;6.108;2023-05-07T06:44:17;40.95;;;21.80;;
73650;SDS011;61944;52.538;6.108;2023-05-07T06:46:42;43.40;;;24.73;;
73650;SDS011;61944;52.538;6.108;2023-05-07T06:49:08;36.95;;;21.88;;
73650;SDS011;61944;52.538;6.108;2023-05-07T06:51:33;42.20;;;22.55;;
73650;SDS011;61944;52.538;6.108;2023-05-07T06:53:59;43.85;;;22.67;;
73650;SDS011;61944;52.538;6.108;2023-05-07T06:56:24;42.20;;;23.10;;
73650;SDS011;61944;52.538;6.108;2023-05-07T06:58:50;45.72;;;23.55;;
73650;SDS011;61944;52.538;6.108;2023-05-07T07:01:15;45.00;;;23.60;;
73650;SDS011;61944;52.538;6.108;2023-05-07T07:03:41;55.17;;;25.98;;
73650;SDS011;61944;52.538;6.108;2023-05-07T07:06:06;46.58;;;24.50;;
73650;SDS011;61944;52.538;6.108;2023-05-07T07:08:32;41.05;;;22.40;;
73650;SDS011;61944;52.538;6.108;2023-05-07T07:10:57;47.72;;;25.00;;
73650;SDS011;61944;52.538;6.108;2023-05-07T07:13:22;47.65;;;24.13;;
73650;SDS011;61944;52.538;6.108;2023-05-07T07:15:48;41.50;;;21.50;;
73650;SDS011;61944;52.538;6.108;2023-05-07T07:18:13;40.85;;;22.63;;
73650;SDS011;61944;52.538;6.108;2023-05-07T07:20:39;49.30;;;24.80;;
73650;SDS011;61944;52.538;6.108;2023-05-07T07:23:04;47.80;;;24.10;;
73650;SDS011;61944;52.538;6.108;2023-05-07T07:25:30;47.03;;;25.83;;
73650;SDS011;61944;52.538;6.108;2023-05-07T07:27:55;43.15;;;22.33;;
73650;SDS011;61944;52.538;6.108;2023-05-07T07:30:21;49.47;;;25.10;;
73650;SDS011;61944;52.538;6.108;2023-05-07T07:32:46;49.47;;;27.00;;
73650;SDS011;61944;52.538;6.108;2023-05-07T07:35:11;45.05;;;23.73;;
73650;SDS011;61944;52.538;6.108;2023-05-07T07:37:37;50.08;;;24.13;;
73650;SDS011;61944;52.538;6.108;2023-05-07T07:40:02;48.17;;;25.17;;
73650;SDS011;61944;52.538;6.108;2023-05-07T07:42:28;42.00;;;24.48;;
73650;SDS011;61944;52.538;6.108;2023-05-07T07:44:54;49.22;;;24.45;;
73650;SDS011;61944;52.538;6.108;2023-05-07T07:47:20;48.00;;;24.85;;
73650;SDS011;61944;52.538;6.108;2023-05-07T07:49:45;47.78;;;24.83;;
73650;SDS011;61944;52.538;6.108;2023-05-07T07:52:10;45.45;;;23.40;;
73650;SDS011;61944;52.538;6.108;2023-05-07T07:54:36;48.90;;;26.60;;
73650;SDS011;61944;52.538;6.108;2023-05-07T07:57:01;40.85;;;22.10;;
73650;SDS011;61944;52.538;6.108;2023-05-07T07:59:26;55.22;;;26.92;;
73650;SDS011;61944;52.538;6.108;2023-05-07T08:01:52;43.28;;;25.10;;
73650;SDS011;61944;52.538;6.108;2023-05-07T08:04:20;41.90;;;22.77;;
73650;SDS011;61944;52.538;6.108;2023-05-07T08:06:46;42.65;;;22.38;;
73650;SDS011;61944;52.538;6.108;2023-05-07T08:09:11;48.15;;;24.27;;
73650;SDS011;61944;52.538;6.108;2023-05-07T08:11:37;47.42;;;26.27;;
73650;SDS011;61944;52.538;6.108;2023-05-07T08:14:03;42.75;;;23.30;;
73650;SDS011;61944;52.538;6.108;2023-05-07T08:16:28;48.30;;;24.33;;
73650;SDS011;61944;52.538;6.108;2023-05-07T08:18:54;51.30;;;25.45;;
73650;SDS011;61944;52.538;6.108;2023-05-07T08:21:19;47.00;;;26.23;;
73650;SDS011;61944;52.538;6.108;2023-05-07T08:23:45;46.40;;;25.20;;
73650;SDS011;61944;52.538;6.108;2023-05-07T08:26:11;43.28;;;23.90;;
73650;SDS011;61944;52.538;6.108;2023-05-07T08:28:36;45.65;;;25.25;;
73650;SDS011;61944;52.538;6.108;2023-05-07T08:31:01;42.55;;;23.75;;
73650;SDS011;61944;52.538;6.108;2023-05-07T08:33:27;49.17;;;22.75;;
73650;SDS011;61944;52.538;6.108;2023-05-07T08:35:52;45.95;;;24.80;;
73650;SDS011;61944;52.538;6.108;2023-05-07T08:38:18;46.38;;;25.88;;
73650;SDS011;61944;52.538;6.108;2023-05-07T08:40:43;41.88;;;23.10;;
73650;SDS011;61944;52.538;6.108;2023-05-07T08:43:10;46.72;;;23.85;;
73650;SDS011;61944;52.538;6.108;2023-05-07T08:45:38;41.92;;;24.30;;
73650;SDS011;61944;52.538;6.108;2023-05-07T08:48:05;49.60;;;25.83;;
73650;SDS011;61944;52.538;6.108;2023-05-07T08:50:37;44.70;;;22.17;;
73650;SDS011;61944;52.538;6.108;2023-05-07T08:53:03;39.17;;;22.42;;
73650;SDS011;61944;52.538;6.108;2023-05-07T08:55:29;42.72;;;23.92;;
73650;SDS011;61944;52.538;6.108;2023-05-07T08:57:55;44.88;;;24.23;;
73650;SDS011;61944;52.538;6.108;2023-05-07T09:00:20;45.30;;;24.02;;
73650;SDS011;61944;52.538;6.108;2023-05-07T09:02:46;41.08;;;21.67;;
73650;SDS011;61944;52.538;6.108;2023-05-07T09:05:11;43.05;;;22.40;;
73650;SDS011;61944;52.538;6.108;2023-05-07T09:07:37;40.65;;;23.10;;
73650;SDS011;61944;52.538;6.108;2023-05-07T09:10:03;41.83;;;23.60;;
73650;SDS011;61944;52.538;6.108;2023-05-07T09:12:29;33.83;;;21.63;;
73650;SDS011;61944;52.538;6.108;2023-05-07T09:14:54;36.33;;;20.50;;
73650;SDS011;61944;52.538;6.108;2023-05-07T09:17:20;42.97;;;22.20;;
73650;SDS011;61944;52.538;6.108;2023-05-07T09:19:45;36.95;;;21.17;;
73650;SDS011;61944;52.538;6.108;2023-05-07T09:22:11;38.22;;;20.45;;
73650;SDS011;61944;52.538;6.108;2023-05-07T09:24:37;31.88;;;18.25;;
73650;SDS011;61944;52.538;6.108;2023-05-07T09:27:06;29.95;;;16.88;;
73650;SDS011;61944;52.538;6.108;2023-05-07T09:29:33;38.70;;;20.33;;
73650;SDS011;61944;52.538;6.108;2023-05-07T09:32:02;29.58;;;15.80;;
73650;SDS011;61944;52.538;6.108;2023-05-07T09:34:29;32.55;;;17.48;;
73650;SDS011;61944;52.538;6.108;2023-05-07T09:36:55;20.13;;;13.10;;
73650;SDS011;61944;52.538;6.108;2023-05-07T09:39:21;37.13;;;18.35;;
73650;SDS011;61944;52.538;6.108;2023-05-07T09:41:48;33.08;;;19.13;;
73650;SDS011;61944;52.538;6.108;2023-05-07T09:44:14;29.70;;;16.80;;
73650;SDS011;61944;52.538;6.108;2023-05-07T09:46:41;24.42;;;14.57;;
73650;SDS011;61944;52.538;6.108;2023-05-07T09:49:07;20.48;;;12.35;;
73650;SDS011;61944;52.538;6.108;2023-05-07T09:51:49;36.33;;;20.08;;
73650;SDS011;61944;52.538;6.108;2023-05-07T09:54:16;25.65;;;13.98;;
73650;SDS011;61944;52.538;6.108;2023-05-07T09:56:45;23.45;;;14.23;;
73650;SDS011;61944;52.538;6.108;2023-05-07T09:59:14;23.67;;;13.65;;
73650;SDS011;61944;52.538;6.108;2023-05-07T10:01:42;36.88;;;20.08;;
73650;SDS011;61944;52.538;6.108;2023-05-07T10:04:08;25.10;;;14.38;;
73650;SDS011;61944;52.538;6.108;2023-05-07T10:06:35;35.28;;;21.30;;
73650;SDS011;61944;52.538;6.108;2023-05-07T10:09:02;27.33;;;14.43;;
73650;SDS011;61944;52.538;6.108;2023-05-07T10:11:31;35.55;;;19.30;;
73650;SDS011;61944;52.538;6.108;2023-05-07T10:13:58;28.83;;;16.17;;
73650;SDS011;61944;52.538;6.108;2023-05-07T10:16:24;35.22;;;17.92;;
73650;SDS011;61944;52.538;6.108;2023-05-07T10:18:50;29.48;;;17.42;;
73650;SDS011;61944;52.538;6.108;2023-05-07T10:21:18;25.77;;;15.80;;
73650;SDS011;61944;52.538;6.108;2023-05-07T10:23:45;25.90;;;15.65;;
73650;SDS011;61944;52.538;6.108;2023-05-07T10:26:13;25.98;;;15.38;;
73650;SDS011;61944;52.538;6.108;2023-05-07T10:28:41;31.83;;;18.38;;
73650;SDS011;61944;52.538;6.108;2023-05-07T10:33:53;33.67;;;20.15;;
73650;SDS011;61944;52.538;6.108;2023-05-07T10:36:21;27.05;;;16.48;;
73650;SDS011;61944;52.538;6.108;2023-05-07T10:38:47;27.42;;;17.15;;
73650;SDS011;61944;52.538;6.108;2023-05-07T10:41:13;30.67;;;16.92;;
73650;SDS011;61944;52.538;6.108;2023-05-07T10:43:40;34.63;;;21.67;;
73650;SDS011;61944;52.538;6.108;2023-05-07T10:46:10;28.70;;;16.65;;
73650;SDS011;61944;52.538;6.108;2023-05-07T10:51:25;31.98;;;18.55;;
73650;SDS011;61944;52.538;6.108;2023-05-07T10:56:34;33.60;;;18.42;;
73650;SDS011;61944;52.538;6.108;2023-05-07T11:01:57;32.15;;;17.17;;
73650;SDS011;61944;52.538;6.108;2023-05-07T11:04:23;26.98;;;14.38;;
73650;SDS011;61944;52.538;6.108;2023-05-07T11:15:06;22.75;;;14.82;;
73650;SDS011;61944;52.538;6.108;2023-05-07T11:17:32;16.88;;;10.60;;
73650;SDS011;61944;52.538;6.108;2023-05-07T11:20:02;17.50;;;11.10;;
73650;SDS011;61944;52.538;6.108;2023-05-07T11:24:56;33.50;;;19.35;;
73650;SDS011;61944;52.538;6.108;2023-05-07T11:27:24;24.48;;;12.88;;
73650;SDS011;61944;52.538;6.108;2023-05-07T11:29:50;27.58;;;15.90;;
73650;SDS011;61944;52.538;6.108;2023-05-07T11:32:15;35.70;;;17.83;;
73650;SDS011;61944;52.538;6.108;2023-05-07T11:34:47;28.85;;;16.35;;
73650;SDS011;61944;52.538;6.108;2023-05-07T11:37:19;29.83;;;15.82;;
73650;SDS011;61944;52.538;6.108;2023-05-07T11:39:46;32.53;;;16.85;;
73650;SDS011;61944;52.538;6.108;2023-05-07T11:42:30;34.00;;;16.08;;
73650;SDS011;61944;52.538;6.108;2023-05-07T11:44:56;31.45;;;12.68;;
73650;SDS011;61944;52.538;6.108;2023-05-07T11:47:22;29.38;;;12.82;;
73650;SDS011;61944;52.538;6.108;2023-05-07T11:49:49;36.22;;;15.05;;
73650;SDS011;61944;52.538;6.108;2023-05-07T11:52:16;34.83;;;14.68;;
73650;SDS011;61944;52.538;6.108;2023-05-07T11:54:48;28.65;;;12.90;;
73650;SDS011;61944;52.538;6.108;2023-05-07T11:57:18;35.97;;;20.35;;
73650;SDS011;61944;52.538;6.108;2023-05-07T11:59:43;33.60;;;15.77;;
73650;SDS011;61944;52.538;6.108;2023-05-07T12:02:09;26.73;;;14.00;;
73650;SDS011;61944;52.538;6.108;2023-05-07T12:04:35;28.25;;;13.93;;
73650;SDS011;61944;52.538;6.108;2023-05-07T12:07:00;32.28;;;15.63;;
73650;SDS011;61944;52.538;6.108;2023-05-07T12:09:26;25.60;;;12.32;;
73650;SDS011;61944;52.538;6.108;2023-05-07T12:11:51;32.03;;;15.30;;
73650;SDS011;61944;52.538;6.108;2023-05-07T12:14:17;27.20;;;14.00;;
73650;SDS011;61944;52.538;6.108;2023-05-07T12:16:43;30.73;;;16.08;;
73650;SDS011;61944;52.538;6.108;2023-05-07T12:19:08;31.98;;;16.80;;
73650;SDS011;61944;52.538;6.108;2023-05-07T12:21:37;21.88;;;12.90;;
73650;SDS011;61944;52.538;6.108;2023-05-07T12:24:03;26.15;;;13.02;;
73650;SDS011;61944;52.538;6.108;2023-05-07T12:26:29;22.10;;;11.30;;
73650;SDS011;61944;52.538;6.108;2023-05-07T12:28:54;21.80;;;12.70;;
73650;SDS011;61944;52.538;6.108;2023-05-07T12:31:20;30.20;;;16.50;;
73650;SDS011;61944;52.538;6.108;2023-05-07T12:33:45;28.33;;;14.27;;
73650;SDS011;61944;52.538;6.108;2023-05-07T12:36:12;29.30;;;17.10;;
73650;SDS011;61944;52.538;6.108;2023-05-07T12:38:38;30.83;;;16.40;;
73650;SDS011;61944;52.538;6.108;2023-05-07T12:41:06;26.90;;;15.18;;
73650;SDS011;61944;52.538;6.108;2023-05-07T12:43:32;28.58;;;15.73;;
73650;SDS011;61944;52.538;6.108;2023-05-07T12:46:03;25.42;;;14.80;;
73650;SDS011;61944;52.538;6.108;2023-05-07T12:48:30;24.85;;;14.13;;
73650;SDS011;61944;52.538;6.108;2023-05-07T12:50:56;35.90;;;19.65;;
73650;SDS011;61944;52.538;6.108;2023-05-07T12:53:23;30.00;;;16.60;;
73650;SDS011;61944;52.538;6.108;2023-05-07T12:55:51;29.58;;;16.23;;
73650;SDS011;61944;52.538;6.108;2023-05-07T12:58:19;31.70;;;18.00;;
73650;SDS011;61944;52.538;6.108;2023-05-07T13:00:45;30.15;;;17.08;;
73650;SDS011;61944;52.538;6.108;2023-05-07T13:03:16;28.27;;;17.02;;
73650;SDS011;61944;52.538;6.108;2023-05-07T13:05:51;28.20;;;17.02;;
73650;SDS011;61944;52.538;6.108;2023-05-07T13:08:26;32.92;;;18.23;;
73650;SDS011;61944;52.538;6.108;2023-05-07T13:10:53;33.03;;;17.08;;
73650;SDS011;61944;52.538;6.108;2023-05-07T13:13:19;36.55;;;22.17;;
73650;SDS011;61944;52.538;6.108;2023-05-07T13:15:46;36.28;;;19.20;;
73650;SDS011;61944;52.538;6.108;2023-05-07T13:18:12;31.45;;;18.15;;
73650;SDS011;61944;52.538;6.108;2023-05-07T13:20:37;34.67;;;20.75;;
73650;SDS011;61944;52.538;6.108;2023-05-07T13:23:03;35.70;;;18.73;;
73650;SDS011;61944;52.538;6.108;2023-05-07T13:25:29;39.03;;;19.00;;
73650;SDS011;61944;52.538;6.108;2023-05-07T13:27:56;36.83;;;20.27;;
73650;SDS011;61944;52.538;6.108;2023-05-07T13:30:22;32.33;;;20.42;;
73650;SDS011;61944;52.538;6.108;2023-05-07T13:32:47;31.52;;;19.10;;
73650;SDS011;61944;52.538;6.108;2023-05-07T13:35:13;28.65;;;18.55;;
73650;SDS011;61944;52.538;6.108;2023-05-07T13:37:39;31.63;;;18.50;;
73650;SDS011;61944;52.538;6.108;2023-05-07T13:40:05;35.20;;;20.27;;
73650;SDS011;61944;52.538;6.108;2023-05-07T13:42:31;30.42;;;20.02;;
73650;SDS011;61944;52.538;6.108;2023-05-07T13:44:56;33.50;;;18.92;;
73650;SDS011;61944;52.538;6.108;2023-05-07T13:47:22;34.95;;;20.15;;
73650;SDS011;61944;52.538;6.108;2023-05-07T13:49:47;31.70;;;19.27;;
73650;SDS011;61944;52.538;6.108;2023-05-07T13:52:15;34.03;;;19.98;;
73650;SDS011;61944;52.538;6.108;2023-05-07T13:54:40;33.40;;;19.08;;
73650;SDS011;61944;52.538;6.108;2023-05-07T13:57:06;30.65;;;17.15;;
73650;SDS011;61944;52.538;6.108;2023-05-07T13:59:31;32.63;;;20.40;;
73650;SDS011;61944;52.538;6.108;2023-05-07T14:01:56;28.83;;;17.02;;
73650;SDS011;61944;52.538;6.108;2023-05-07T14:04:22;28.73;;;18.42;;
73650;SDS011;61944;52.538;6.108;2023-05-07T14:06:47;30.58;;;17.08;;
73650;SDS011;61944;52.538;6.108;2023-05-07T14:09:13;36.38;;;19.40;;
73650;SDS011;61944;52.538;6.108;2023-05-07T14:11:38;33.90;;;17.38;;
73650;SDS011;61944;52.538;6.108;2023-05-07T14:14:04;32.22;;;17.38;;
73650;SDS011;61944;52.538;6.108;2023-05-07T14:16:30;36.28;;;20.60;;
73650;SDS011;61944;52.538;6.108;2023-05-07T14:18:55;32.03;;;19.02;;
73650;SDS011;61944;52.538;6.108;2023-05-07T14:21:21;29.77;;;17.27;;
73650;SDS011;61944;52.538;6.108;2023-05-07T14:23:46;32.58;;;18.42;;
73650;SDS011;61944;52.538;6.108;2023-05-07T14:26:12;32.53;;;18.95;;
73650;SDS011;61944;52.538;6.108;2023-05-07T14:28:37;33.22;;;20.23;;
73650;SDS011;61944;52.538;6.108;2023-05-07T14:31:04;33.45;;;20.13;;
73650;SDS011;61944;52.538;6.108;2023-05-07T14:33:31;34.30;;;20.08;;
73650;SDS011;61944;52.538;6.108;2023-05-07T14:35:56;35.97;;;19.67;;
73650;SDS011;61944;52.538;6.108;2023-05-07T14:38:22;35.00;;;19.48;;